createdAt,value
2023-05-31T00:04:21.265Z,97826.97
2023-05-31T00:06:47.828Z,97834.59
2023-05-31T00:09:14.356Z,97826.97
2023-05-31T00:11:40.993Z,97828.56
2023-05-31T00:14:07.694Z,97829.56
2023-05-31T00:19:07.754Z,97828.38
2023-05-31T00:21:34.405Z,97826.94
2023-05-31T00:24:00.953Z,97824.78
2023-05-31T00:26:27.788Z,97827.25
2023-05-31T00:28:54.622Z,97826.63
2023-05-31T00:31:21.310Z,97828.25
2023-05-31T00:33:49.865Z,97819.84
2023-05-31T00:36:16.454Z,97831.75
2023-05-31T00:38:42.969Z,97821.56
2023-05-31T00:41:12.971Z,97820.41
2023-05-31T00:43:39.564Z,97817.22
2023-05-31T00:46:07.238Z,97812.94
2023-05-31T00:48:40.751Z,97818.06
2023-05-31T00:51:07.367Z,97816.13
2023-05-31T00:53:34.386Z,97816.97
2023-05-31T00:56:01.870Z,97825.03
2023-05-31T00:58:29.055Z,97826.75
2023-05-31T01:01:00.098Z,97818.56
2023-05-31T01:03:27.093Z,97823.59
2023-05-31T01:05:53.791Z,97817.41
2023-05-31T01:08:21.806Z,97810.38
2023-05-31T01:10:55.229Z,97828.44
2023-05-31T01:13:28.924Z,97802.00
2023-05-31T01:16:04.282Z,97818.06
2023-05-31T01:18:42.736Z,97823.47
2023-05-31T01:21:14.352Z,97809.94
2023-05-31T01:24:11.801Z,97803.75
2023-05-31T01:26:51.463Z,97807.31
2023-05-31T01:29:25.968Z,97812.00
2023-05-31T01:31:55.617Z,97819.81
2023-05-31T01:34:22.664Z,97807.75
2023-05-31T01:36:49.187Z,97810.16
2023-05-31T01:39:18.556Z,97808.59
2023-05-31T01:41:47.628Z,97804.31
2023-05-31T01:44:16.887Z,97815.22
2023-05-31T01:46:44.094Z,97805.13
2023-05-31T01:49:11.751Z,97807.09
2023-05-31T01:51:40.775Z,97806.34
2023-05-31T01:54:09.187Z,97803.66
2023-05-31T01:56:40.685Z,97800.56
2023-05-31T01:59:08.791Z,97813.00
2023-05-31T02:01:37.612Z,97808.75
2023-05-31T02:04:04.623Z,97816.25
2023-05-31T02:06:32.901Z,97810.91
2023-05-31T02:09:01.687Z,97819.38
2023-05-31T02:11:28.373Z,97820.03
2023-05-31T02:13:54.921Z,97815.09
2023-05-31T02:16:23.379Z,97815.19
2023-05-31T02:18:52.416Z,97813.31
2023-05-31T02:21:19.115Z,97822.66
2023-05-31T02:23:46.237Z,97815.34
2023-05-31T02:26:12.772Z,97819.25
2023-05-31T02:28:41.389Z,97811.22
2023-05-31T02:31:09.784Z,97812.28
2023-05-31T02:33:36.419Z,97813.44
2023-05-31T02:36:03.090Z,97816.59
2023-05-31T02:38:33.320Z,97811.88
2023-05-31T02:41:00.057Z,97802.56
2023-05-31T02:43:26.894Z,97811.16
2023-05-31T02:45:53.753Z,97809.28
2023-05-31T02:48:20.414Z,97816.34
2023-05-31T02:50:47.341Z,97826.22
2023-05-31T02:53:18.129Z,97821.31
2023-05-31T02:55:44.855Z,97824.50
2023-05-31T02:58:11.882Z,97820.22
2023-05-31T03:00:38.657Z,97819.50
2023-05-31T03:03:08.824Z,97814.09
2023-05-31T03:05:35.486Z,97814.13
2023-05-31T03:08:03.826Z,97825.75
2023-05-31T03:10:30.401Z,97828.06
2023-05-31T03:12:56.995Z,97821.06
2023-05-31T03:15:27.475Z,97828.47
2023-05-31T03:17:54.114Z,97820.34
2023-05-31T03:20:20.846Z,97826.56
2023-05-31T03:22:47.600Z,97810.34
2023-05-31T03:25:14.200Z,97824.28
2023-05-31T03:27:40.840Z,97829.75
2023-05-31T03:30:08.224Z,97823.53
2023-05-31T03:32:36.251Z,97829.66
2023-05-31T03:35:04.452Z,97830.06
2023-05-31T03:37:32.890Z,97826.59
2023-05-31T03:39:59.701Z,97837.50
2023-05-31T03:42:26.433Z,97825.88
2023-05-31T03:44:57.458Z,97833.63
2023-05-31T03:47:24.184Z,97824.00
2023-05-31T03:49:50.850Z,97826.66
2023-05-31T03:52:23.464Z,97823.19
2023-05-31T03:54:50.604Z,97824.34
2023-05-31T03:57:17.366Z,97836.81
2023-05-31T03:59:44.146Z,97835.28
2023-05-31T04:02:10.974Z,97842.22
2023-05-31T04:04:37.637Z,97838.72
2023-05-31T04:07:04.723Z,97847.63
2023-05-31T04:09:31.375Z,97851.06
2023-05-31T04:11:58.041Z,97851.44
2023-05-31T04:14:24.662Z,97854.53
2023-05-31T04:16:51.251Z,97853.75
2023-05-31T04:19:18.060Z,97854.50
2023-05-31T04:21:44.783Z,97864.63
2023-05-31T04:24:11.988Z,97852.16
2023-05-31T04:26:38.811Z,97855.25
2023-05-31T04:29:05.459Z,97860.63
2023-05-31T04:31:50.007Z,97859.81
2023-05-31T04:34:24.343Z,97857.06
2023-05-31T04:36:51.447Z,97862.09
2023-05-31T04:39:21.022Z,97861.25
2023-05-31T04:41:47.982Z,97868.66
2023-05-31T04:44:14.925Z,97866.28
2023-05-31T04:46:44.158Z,97866.19
2023-05-31T04:49:15.310Z,97866.06
2023-05-31T04:51:42.240Z,97867.97
2023-05-31T04:54:09.272Z,97865.56
2023-05-31T04:56:40.366Z,97870.94
2023-05-31T04:59:08.807Z,97878.69
2023-05-31T05:01:36.994Z,97876.69
2023-05-31T05:04:05.752Z,97887.03
2023-05-31T05:06:32.517Z,97886.59
2023-05-31T05:08:59.593Z,97891.22
2023-05-31T05:11:28.584Z,97881.44
2023-05-31T05:13:55.089Z,97885.97
2023-05-31T05:16:23.974Z,97883.22
2023-05-31T05:18:50.683Z,97888.19
2023-05-31T05:21:17.218Z,97893.97
2023-05-31T05:23:43.816Z,97888.00
2023-05-31T05:26:12.531Z,97897.19
2023-05-31T05:28:39.571Z,97890.38
2023-05-31T05:31:06.157Z,97896.16
2023-05-31T05:33:32.836Z,97892.53
2023-05-31T05:35:59.524Z,97885.50
2023-05-31T05:38:26.007Z,97890.63
2023-05-31T05:40:59.321Z,97904.31
2023-05-31T05:43:26.167Z,97895.56
2023-05-31T05:45:52.745Z,97897.91
2023-05-31T05:48:21.532Z,97898.84
2023-05-31T05:50:48.558Z,97904.88
2023-05-31T05:53:18.620Z,97909.50
2023-05-31T05:55:57.413Z,97912.41
2023-05-31T05:58:23.950Z,97915.41
2023-05-31T06:00:50.488Z,97919.41
2023-05-31T06:03:17.486Z,97927.06
2023-05-31T06:05:44.601Z,97918.44
2023-05-31T06:08:12.122Z,97919.81
2023-05-31T06:10:39.096Z,97923.03
2023-05-31T06:13:05.884Z,97910.06
2023-05-31T06:18:24.883Z,97919.53
2023-05-31T06:20:51.585Z,97919.34
2023-05-31T06:23:18.192Z,97921.75
2023-05-31T06:25:46.520Z,97921.97
2023-05-31T06:28:13.585Z,97916.13
2023-05-31T06:30:46.864Z,97928.22
2023-05-31T06:33:19.814Z,97936.56
2023-05-31T06:35:46.436Z,97930.97
2023-05-31T06:38:17.768Z,97917.56
2023-05-31T06:40:44.867Z,97916.56
2023-05-31T06:43:12.035Z,97916.22
2023-05-31T06:45:42.961Z,97920.41
2023-05-31T06:48:12.205Z,97914.69
2023-05-31T06:50:38.806Z,97919.72
2023-05-31T06:53:05.636Z,97922.53
2023-05-31T06:55:32.538Z,97921.72
2023-05-31T06:57:59.622Z,97922.19
2023-05-31T07:00:26.271Z,97921.78
2023-05-31T07:02:53.076Z,97920.63
2023-05-31T07:05:22.053Z,97912.69
2023-05-31T07:07:48.654Z,97915.78
2023-05-31T07:10:15.336Z,97912.19
2023-05-31T07:12:41.902Z,97906.50
2023-05-31T07:15:12.077Z,97911.72
2023-05-31T07:17:47.201Z,97910.38
2023-05-31T07:20:14.120Z,97909.63
2023-05-31T07:22:40.776Z,97903.75
2023-05-31T07:25:08.029Z,97907.44
2023-05-31T07:27:34.555Z,97910.75
2023-05-31T07:30:01.403Z,97914.97
2023-05-31T07:32:29.864Z,97906.78
2023-05-31T07:35:02.429Z,97902.97
2023-05-31T07:37:31.773Z,97898.53
2023-05-31T07:39:58.934Z,97898.06
2023-05-31T07:42:25.545Z,97888.06
2023-05-31T07:44:52.116Z,97889.94
2023-05-31T07:47:18.695Z,97894.69
2023-05-31T07:49:45.216Z,97897.38
2023-05-31T07:52:13.460Z,97898.75
2023-05-31T07:54:40.000Z,97895.41
2023-05-31T07:57:08.914Z,97892.44
2023-05-31T07:59:35.987Z,97896.91
2023-05-31T08:02:02.644Z,97893.47
2023-05-31T08:04:29.716Z,97885.84
2023-05-31T08:07:01.857Z,97885.84
2023-05-31T08:09:28.620Z,97883.97
2023-05-31T08:11:55.233Z,97878.00
2023-05-31T08:14:22.157Z,97880.19
2023-05-31T08:16:50.477Z,97879.72
2023-05-31T08:19:17.516Z,97876.78
2023-05-31T08:21:48.238Z,97877.53
2023-05-31T08:24:14.829Z,97881.03
2023-05-31T08:26:44.933Z,97880.19
2023-05-31T08:29:20.184Z,97881.78
2023-05-31T08:31:46.687Z,97878.81
2023-05-31T08:34:13.316Z,97873.44
2023-05-31T08:36:41.644Z,97873.44
2023-05-31T08:39:10.088Z,97873.75
2023-05-31T08:41:55.517Z,97870.66
2023-05-31T08:44:24.871Z,97869.97
2023-05-31T08:46:51.574Z,97874.56
2023-05-31T08:49:21.394Z,97869.06
2023-05-31T08:51:49.586Z,97875.53
2023-05-31T08:54:18.243Z,97872.78
2023-05-31T08:56:48.313Z,97861.31
2023-05-31T08:59:17.675Z,97863.31
2023-05-31T09:01:45.186Z,97862.91
2023-05-31T09:04:14.290Z,97859.25
2023-05-31T09:06:44.543Z,97862.22
2023-05-31T09:09:11.212Z,97855.81
2023-05-31T09:11:41.824Z,97862.81
2023-05-31T09:14:11.870Z,97853.63
2023-05-31T09:16:39.255Z,97851.75
2023-05-31T09:19:07.267Z,97855.84
2023-05-31T09:21:44.151Z,97856.03
2023-05-31T09:24:11.566Z,97847.97
2023-05-31T09:27:06.842Z,97850.25
2023-05-31T09:29:33.636Z,97852.56
2023-05-31T09:32:11.112Z,97853.22
2023-05-31T09:34:39.525Z,97841.53
2023-05-31T09:37:06.884Z,97842.88
2023-05-31T09:39:33.957Z,97849.63
2023-05-31T09:42:02.495Z,97847.97
2023-05-31T09:44:31.355Z,97842.22
2023-05-31T09:47:10.417Z,97824.03
2023-05-31T09:49:37.223Z,97832.59
2023-05-31T09:52:03.921Z,97827.97
2023-05-31T09:54:30.800Z,97825.47
2023-05-31T09:56:57.310Z,97818.72
2023-05-31T09:59:23.870Z,97827.09
2023-05-31T10:01:53.059Z,97815.25
2023-05-31T10:04:21.139Z,97814.50
2023-05-31T10:06:48.877Z,97814.97
2023-05-31T10:09:17.267Z,97812.97
2023-05-31T10:11:51.432Z,97816.19
2023-05-31T10:14:25.243Z,97805.44
2023-05-31T10:16:59.879Z,97804.22
2023-05-31T10:19:38.504Z,97806.97
2023-05-31T10:22:08.480Z,97810.00
2023-05-31T10:24:54.107Z,97810.97
2023-05-31T10:27:30.245Z,97800.16
2023-05-31T10:29:58.011Z,97805.72
2023-05-31T10:32:28.225Z,97805.66
2023-05-31T10:34:55.094Z,97792.84
2023-05-31T10:37:23.152Z,97786.16
2023-05-31T10:40:14.610Z,97791.28
2023-05-31T10:42:58.135Z,97794.66
2023-05-31T10:45:32.719Z,97786.28
2023-05-31T10:48:18.951Z,97790.16
2023-05-31T10:51:00.538Z,97799.56
2023-05-31T10:53:33.828Z,97785.91
2023-05-31T10:56:05.646Z,97781.31
2023-05-31T10:58:39.930Z,97794.34
2023-05-31T11:01:12.228Z,97780.22
2023-05-31T11:04:20.215Z,97776.31
2023-05-31T11:06:53.116Z,97794.09
2023-05-31T11:09:19.804Z,97782.06
2023-05-31T11:11:56.517Z,97781.66
2023-05-31T11:14:27.183Z,97787.84
2023-05-31T11:16:54.590Z,97781.25
2023-05-31T11:19:25.461Z,97778.47
2023-05-31T11:21:53.664Z,97779.47
2023-05-31T11:24:31.534Z,97782.94
2023-05-31T11:27:01.625Z,97789.75
2023-05-31T11:29:47.630Z,97777.34
2023-05-31T11:32:21.870Z,97783.75
2023-05-31T11:35:05.602Z,97779.50
2023-05-31T11:37:38.391Z,97774.41
2023-05-31T11:40:09.447Z,97773.19
2023-05-31T11:42:40.821Z,97784.72
2023-05-31T11:45:09.698Z,97775.09
2023-05-31T11:47:47.591Z,97784.00
2023-05-31T11:50:19.468Z,97772.41
2023-05-31T11:52:46.756Z,97765.44
2023-05-31T11:55:20.734Z,97778.06
2023-05-31T11:57:52.732Z,97771.56
2023-05-31T12:00:22.822Z,97767.69
2023-05-31T12:02:54.654Z,97765.28
2023-05-31T12:05:25.505Z,97760.06
2023-05-31T12:07:57.022Z,97757.09
2023-05-31T12:10:32.792Z,97757.28
2023-05-31T12:13:02.087Z,97758.44
2023-05-31T12:15:40.012Z,97751.56
2023-05-31T12:18:06.627Z,97757.13
2023-05-31T12:20:34.898Z,97752.25
2023-05-31T12:23:16.190Z,97742.59
2023-05-31T12:25:50.144Z,97739.34
2023-05-31T12:28:24.522Z,97734.34
2023-05-31T12:30:53.450Z,97735.91
2023-05-31T12:33:21.180Z,97722.34
2023-05-31T12:35:48.866Z,97717.16
2023-05-31T12:38:16.629Z,97734.84
2023-05-31T12:40:44.671Z,97714.25
2023-05-31T12:43:17.336Z,97725.41
2023-05-31T12:45:44.049Z,97726.94
2023-05-31T12:48:12.029Z,97730.19
2023-05-31T12:50:46.467Z,97711.34
2023-05-31T12:53:14.609Z,97716.78
2023-05-31T12:55:42.310Z,97711.34
2023-05-31T12:58:11.200Z,97709.22
2023-05-31T13:00:37.806Z,97715.69
2023-05-31T13:03:05.360Z,97711.81
2023-05-31T13:05:32.546Z,97713.19
2023-05-31T13:07:59.732Z,97702.81
2023-05-31T13:10:26.372Z,97707.09
2023-05-31T13:12:54.653Z,97695.97
2023-05-31T13:15:21.969Z,97704.03
2023-05-31T13:17:48.520Z,97692.81
2023-05-31T13:20:17.435Z,97707.09
2023-05-31T13:22:46.360Z,97702.69
2023-05-31T13:25:12.907Z,97685.13
2023-05-31T13:27:44.249Z,97686.81
2023-05-31T13:30:11.354Z,97693.25
2023-05-31T13:32:37.935Z,97685.47
2023-05-31T13:35:09.726Z,97686.59
2023-05-31T13:37:36.636Z,97679.31
2023-05-31T13:40:03.910Z,97679.88
2023-05-31T13:42:30.638Z,97668.28
2023-05-31T13:45:02.475Z,97673.50
2023-05-31T13:47:41.078Z,97671.03
2023-05-31T13:50:08.658Z,97667.84
2023-05-31T13:52:35.314Z,97674.34
2023-05-31T13:55:03.647Z,97658.91
2023-05-31T13:57:30.209Z,97673.22
2023-05-31T13:59:58.672Z,97666.78
2023-05-31T14:02:27.747Z,97677.00
2023-05-31T14:04:54.308Z,97673.09
2023-05-31T14:07:20.835Z,97668.53
2023-05-31T14:09:49.251Z,97664.31
2023-05-31T14:12:15.972Z,97657.00
2023-05-31T14:14:42.619Z,97654.31
2023-05-31T14:17:11.060Z,97653.84
2023-05-31T14:19:37.669Z,97646.72
2023-05-31T14:22:04.451Z,97651.28
2023-05-31T14:24:31.187Z,97645.44
2023-05-31T14:26:57.782Z,97678.16
2023-05-31T14:29:28.106Z,97649.56
2023-05-31T14:31:54.748Z,97648.59
2023-05-31T14:34:21.362Z,97655.41
2023-05-31T14:36:48.149Z,97645.84
2023-05-31T14:39:17.386Z,97635.59
2023-05-31T14:41:44.184Z,97636.91
2023-05-31T14:44:10.795Z,97638.44
2023-05-31T14:46:39.161Z,97636.09
2023-05-31T14:49:05.809Z,97638.03
2023-05-31T14:51:34.465Z,97638.94
2023-05-31T14:54:06.128Z,97636.03
2023-05-31T14:56:32.725Z,97631.09
2023-05-31T14:58:59.263Z,97645.72
2023-05-31T15:01:26.146Z,97643.88
2023-05-31T15:03:52.830Z,97643.78
2023-05-31T15:06:22.931Z,97635.81
2023-05-31T15:08:49.535Z,97645.31
2023-05-31T15:11:16.162Z,97643.41
2023-05-31T15:13:43.237Z,97642.06
2023-05-31T15:16:09.961Z,97641.00
2023-05-31T15:18:40.832Z,97650.63
2023-05-31T15:21:08.205Z,97655.44
2023-05-31T15:23:34.999Z,97656.50
2023-05-31T15:26:01.544Z,97653.38
2023-05-31T15:28:28.217Z,97647.06
2023-05-31T15:30:59.999Z,97643.31
2023-05-31T15:33:26.697Z,97641.41
2023-05-31T15:35:53.212Z,97647.91
2023-05-31T15:38:24.136Z,97650.28
2023-05-31T15:40:50.815Z,97653.84
2023-05-31T15:43:18.291Z,97654.94
2023-05-31T15:45:48.559Z,97653.41
2023-05-31T15:48:15.176Z,97659.38
2023-05-31T15:50:41.897Z,97666.25
2023-05-31T15:53:13.304Z,97655.25
2023-05-31T15:55:41.891Z,97651.94
2023-05-31T15:58:08.709Z,97643.63
2023-05-31T16:00:37.486Z,97649.09
2023-05-31T16:03:06.338Z,97645.91
2023-05-31T16:05:32.970Z,97645.53
2023-05-31T16:08:05.420Z,97647.16
2023-05-31T16:10:32.058Z,97658.63
2023-05-31T16:12:59.818Z,97646.91
2023-05-31T16:15:39.339Z,97649.28
2023-05-31T16:18:08.111Z,97652.81
2023-05-31T16:20:35.241Z,97642.31
2023-05-31T16:23:01.913Z,97650.31
2023-05-31T16:25:28.459Z,97643.66
2023-05-31T16:27:54.981Z,97640.97
2023-05-31T16:30:25.944Z,97646.16
2023-05-31T16:32:53.094Z,97643.66
2023-05-31T16:35:19.718Z,97657.41
2023-05-31T16:37:48.426Z,97646.16
2023-05-31T16:40:14.959Z,97647.09
2023-05-31T16:42:41.842Z,97648.44
2023-05-31T16:45:10.524Z,97661.44
2023-05-31T16:47:37.125Z,97653.97
2023-05-31T16:50:04.223Z,97646.44
2023-05-31T16:52:33.481Z,97648.72
2023-05-31T16:57:53.938Z,97653.22
2023-05-31T17:00:24.867Z,97655.00
2023-05-31T17:02:51.573Z,97664.94
2023-05-31T17:05:18.387Z,97663.13
2023-05-31T17:07:45.011Z,97667.38
2023-05-31T17:10:11.711Z,97666.13
2023-05-31T17:12:45.534Z,97664.63
2023-05-31T17:15:12.053Z,97673.41
2023-05-31T17:17:40.872Z,97670.91
2023-05-31T17:20:08.300Z,97680.56
2023-05-31T17:22:35.077Z,97675.50
2023-05-31T17:25:01.923Z,97673.97
2023-05-31T17:27:30.169Z,97671.69
2023-05-31T17:29:56.808Z,97681.41
2023-05-31T17:32:23.305Z,97676.13
2023-05-31T17:34:59.968Z,97687.75
2023-05-31T17:37:32.342Z,97686.81
2023-05-31T17:40:02.801Z,97690.69
2023-05-31T17:42:29.400Z,97685.50
2023-05-31T17:44:55.983Z,97686.03
2023-05-31T17:47:22.606Z,97694.53
2023-05-31T17:49:49.256Z,97692.25
2023-05-31T17:52:15.802Z,97689.66
2023-05-31T17:54:42.402Z,97701.06
2023-05-31T17:57:09.422Z,97693.88
2023-05-31T17:59:36.024Z,97695.41
2023-05-31T18:02:02.615Z,97695.88
2023-05-31T18:04:35.555Z,97702.81
2023-05-31T18:07:03.899Z,97705.75
2023-05-31T18:09:30.403Z,97708.25
2023-05-31T18:11:58.886Z,97700.53
2023-05-31T18:14:25.578Z,97701.94
2023-05-31T18:16:53.851Z,97707.59
2023-05-31T18:19:22.537Z,97714.81
2023-05-31T18:21:49.126Z,97710.72
2023-05-31T18:24:16.633Z,97713.34
2023-05-31T18:26:45.472Z,97709.50
2023-05-31T18:29:11.988Z,97714.94
2023-05-31T18:31:38.792Z,97715.56
2023-05-31T18:34:07.171Z,97713.09
2023-05-31T18:36:33.902Z,97721.09
2023-05-31T18:39:00.604Z,97720.34
2023-05-31T18:41:29.514Z,97722.50
2023-05-31T18:43:56.068Z,97719.44
2023-05-31T18:46:22.660Z,97724.69
2023-05-31T18:48:58.197Z,97719.00
2023-05-31T18:51:27.120Z,97719.47
2023-05-31T18:53:53.687Z,97725.13
2023-05-31T18:56:20.591Z,97728.00
2023-05-31T18:58:47.120Z,97732.75
2023-05-31T19:01:14.641Z,97726.91
2023-05-31T19:03:41.416Z,97729.34
2023-05-31T19:06:08.322Z,97736.06
2023-05-31T19:08:36.907Z,97731.75
2023-05-31T19:11:04.243Z,97737.16
2023-05-31T19:13:30.872Z,97747.44
2023-05-31T19:15:57.493Z,97747.97
2023-05-31T19:18:24.356Z,97752.78
2023-05-31T19:20:51.230Z,97754.25
2023-05-31T19:23:17.969Z,97757.88
2023-05-31T19:25:46.588Z,97771.34
2023-05-31T19:28:13.346Z,97773.00
2023-05-31T19:30:41.945Z,97770.69
2023-05-31T19:33:17.031Z,97767.31
2023-05-31T19:35:45.916Z,97770.63
2023-05-31T19:38:12.719Z,97765.94
2023-05-31T19:40:39.442Z,97769.19
2023-05-31T19:43:07.419Z,97775.13
2023-05-31T19:45:34.573Z,97781.09
2023-05-31T19:48:15.962Z,97782.34
2023-05-31T19:50:44.923Z,97788.84
2023-05-31T19:53:15.570Z,97779.38
2023-05-31T19:55:43.884Z,97787.28
2023-05-31T19:58:11.699Z,97785.28
2023-05-31T20:00:38.348Z,97786.47
2023-05-31T20:03:05.673Z,97786.78
2023-05-31T20:05:38.838Z,97791.69
2023-05-31T20:08:06.351Z,97790.41
2023-05-31T20:10:32.838Z,97791.38
2023-05-31T20:12:59.645Z,97797.63
2023-05-31T20:15:26.799Z,97799.50
2023-05-31T20:17:53.361Z,97792.59
2023-05-31T20:20:21.663Z,97792.28
2023-05-31T20:22:48.334Z,97797.25
2023-05-31T20:25:17.068Z,97798.97
2023-05-31T20:27:43.693Z,97794.78
2023-05-31T20:30:10.748Z,97791.34
2023-05-31T20:32:37.373Z,97790.31
2023-05-31T20:35:06.505Z,97799.81
2023-05-31T20:37:33.208Z,97793.91
2023-05-31T20:39:59.898Z,97800.25
2023-05-31T20:42:27.211Z,97793.94
2023-05-31T20:44:53.899Z,97791.22
2023-05-31T20:47:20.509Z,97789.31
2023-05-31T20:49:47.204Z,97786.56
2023-05-31T20:52:13.824Z,97788.59
2023-05-31T20:54:40.344Z,97789.78
2023-05-31T20:57:09.756Z,97788.63
2023-05-31T20:59:36.741Z,97788.53
2023-05-31T21:02:04.168Z,97795.13
2023-05-31T21:04:42.319Z,97792.75
2023-05-31T21:07:10.281Z,97796.03
2023-05-31T21:09:36.821Z,97788.75
2023-05-31T21:12:03.617Z,97793.97
2023-05-31T21:14:32.344Z,97796.19
2023-05-31T21:16:59.622Z,97795.31
2023-05-31T21:19:26.154Z,97789.09
2023-05-31T21:21:52.810Z,97804.38
2023-05-31T21:24:19.402Z,97794.63
2023-05-31T21:26:46.130Z,97800.19
2023-05-31T21:29:12.716Z,97795.00
2023-05-31T21:31:39.730Z,97802.41
2023-05-31T21:34:06.749Z,97806.94
2023-05-31T21:36:33.596Z,97794.78
2023-05-31T21:39:00.205Z,97792.47
2023-05-31T21:41:29.064Z,97797.41
2023-05-31T21:43:57.845Z,97796.00
2023-05-31T21:46:24.676Z,97806.94
2023-05-31T21:48:51.731Z,97802.34
2023-05-31T21:51:18.588Z,97803.09
2023-05-31T21:53:45.413Z,97802.34
2023-05-31T21:56:11.922Z,97803.53
2023-05-31T21:58:40.380Z,97806.94
2023-05-31T22:01:07.009Z,97803.94
2023-05-31T22:03:33.589Z,97808.66
2023-05-31T22:06:09.220Z,97806.13
2023-05-31T22:08:37.644Z,97805.06
2023-05-31T22:11:04.450Z,97811.81
2023-05-31T22:13:33.530Z,97813.84
2023-05-31T22:16:00.310Z,97814.34
2023-05-31T22:18:32.097Z,97812.91
2023-05-31T22:20:59.946Z,97821.91
2023-05-31T22:23:27.243Z,97814.41
2023-05-31T22:25:55.521Z,97824.16
2023-05-31T22:28:30.075Z,97828.44
2023-05-31T22:30:57.787Z,97828.00
2023-05-31T22:33:24.435Z,97827.94
2023-05-31T22:35:53.304Z,97819.47
2023-05-31T22:38:19.866Z,97823.84
2023-05-31T22:40:46.662Z,97824.66
2023-05-31T22:43:15.460Z,97830.59
2023-05-31T22:45:42.087Z,97825.44
2023-05-31T22:48:11.219Z,97832.16
2023-05-31T22:50:39.426Z,97831.41
2023-05-31T22:53:08.268Z,97827.88
2023-05-31T22:55:35.343Z,97835.75
2023-05-31T22:58:04.518Z,97839.59
2023-05-31T23:00:31.531Z,97840.03
2023-05-31T23:02:58.238Z,97838.00
2023-05-31T23:05:28.675Z,97836.13
2023-05-31T23:08:02.698Z,97835.75
2023-05-31T23:10:35.704Z,97841.22
2023-05-31T23:13:04.846Z,97837.78
2023-05-31T23:15:38.562Z,97831.91
2023-05-31T23:18:10.709Z,97829.28
2023-05-31T23:20:39.500Z,97827.28
2023-05-31T23:23:07.642Z,97827.28
2023-05-31T23:25:34.527Z,97827.56
2023-05-31T23:28:03.312Z,97828.81
2023-05-31T23:30:29.989Z,97832.50
2023-05-31T23:32:56.740Z,97834.63
2023-05-31T23:35:23.332Z,97835.56
2023-05-31T23:37:51.778Z,97839.13
2023-05-31T23:40:18.757Z,97837.28
2023-05-31T23:42:45.671Z,97837.34
2023-05-31T23:45:12.817Z,97829.47
2023-05-31T23:47:43.069Z,97834.66
2023-05-31T23:50:10.146Z,97836.03
2023-05-31T23:52:37.367Z,97831.84
2023-05-31T23:55:05.113Z,97830.97
2023-05-31T23:57:31.757Z,97833.94
2023-05-31T23:59:58.714Z,97843.75
